createdAt,value
2023-05-09T00:00:11.255Z,33.59
2023-05-09T00:01:11.223Z,34.29
2023-05-09T00:02:11.314Z,37.29
2023-05-09T00:03:11.219Z,34.50
2023-05-09T00:04:11.241Z,36.79
2023-05-09T00:05:11.348Z,34.90
2023-05-09T00:06:11.303Z,45.50
2023-05-09T00:07:11.171Z,31.89
2023-05-09T00:08:11.164Z,42.59
2023-05-09T00:09:11.148Z,41.29
2023-05-09T00:10:11.134Z,41.90
2023-05-09T00:11:11.136Z,46.20
2023-05-09T00:12:11.113Z,46.20
2023-05-09T00:13:11.163Z,40.79
2023-05-09T00:14:11.080Z,36.29
2023-05-09T00:15:11.150Z,38.70
2023-05-09T00:16:11.107Z,46.50
2023-05-09T00:17:11.064Z,46.40
2023-05-09T00:18:11.049Z,45.79
2023-05-09T00:19:11.032Z,48.40
2023-05-09T00:20:11.025Z,42.00
2023-05-09T00:21:11.025Z,39.79
2023-05-09T00:22:11.108Z,55.50
2023-05-09T00:23:10.990Z,52.90
2023-05-09T00:24:10.981Z,47.70
2023-05-09T00:25:10.985Z,42.20
2023-05-09T00:26:10.944Z,44.59
2023-05-09T00:27:10.937Z,43.20
2023-05-09T00:28:10.938Z,35.90
2023-05-09T00:29:10.923Z,37.50
2023-05-09T00:30:10.923Z,41.59
2023-05-09T00:31:10.904Z,41.00
2023-05-09T00:32:10.921Z,43.29
2023-05-09T00:33:10.938Z,31.70
2023-05-09T00:34:10.865Z,43.29
2023-05-09T00:35:10.966Z,38.09
2023-05-09T00:36:10.835Z,37.40
2023-05-09T00:37:10.830Z,33.50
2023-05-09T00:38:10.941Z,33.09
2023-05-09T00:39:10.810Z,45.20
2023-05-09T00:40:10.793Z,33.70
2023-05-09T00:41:10.788Z,36.40
2023-05-09T00:42:10.787Z,39.59
2023-05-09T00:43:10.780Z,42.59
2023-05-09T00:44:10.760Z,39.70
2023-05-09T00:45:10.749Z,41.09
2023-05-09T00:46:10.737Z,39.40
2023-05-09T00:47:10.731Z,40.90
2023-05-09T00:48:10.719Z,31.39
2023-05-09T00:49:10.716Z,30.39
2023-05-09T00:50:10.714Z,40.40
2023-05-09T00:51:10.696Z,34.59
2023-05-09T00:52:10.678Z,33.50
2023-05-09T00:53:10.653Z,40.00
2023-05-09T00:54:10.764Z,39.79
2023-05-09T00:55:10.649Z,45.00
2023-05-09T00:56:10.629Z,35.09
2023-05-09T00:57:10.623Z,40.29
2023-05-09T00:58:10.636Z,37.90
2023-05-09T00:59:10.597Z,39.50
2023-05-09T01:00:10.580Z,34.59
2023-05-09T01:01:10.643Z,37.40
2023-05-09T01:02:10.571Z,30.39
2023-05-09T01:03:10.611Z,32.20
2023-05-09T01:04:10.554Z,41.59
2023-05-09T01:05:10.545Z,46.90
2023-05-09T01:06:10.529Z,50.29
2023-05-09T01:07:10.505Z,39.20
2023-05-09T01:08:10.518Z,41.40
2023-05-09T01:09:10.486Z,44.09
2023-05-09T01:10:10.604Z,43.00
2023-05-09T01:11:10.465Z,43.40
2023-05-09T01:12:10.458Z,37.50
2023-05-09T01:13:10.479Z,41.90
2023-05-09T01:14:10.430Z,34.70
2023-05-09T01:15:10.425Z,33.40
2023-05-09T01:16:10.488Z,37.90
2023-05-09T01:17:10.390Z,39.59
2023-05-09T01:18:10.441Z,36.50
2023-05-09T01:19:10.370Z,38.50
2023-05-09T01:20:10.369Z,43.59
2023-05-09T01:21:10.350Z,49.29
2023-05-09T01:22:10.352Z,53.40
2023-05-09T01:23:10.326Z,42.50
2023-05-09T01:24:10.326Z,53.00
2023-05-09T01:25:10.306Z,43.40
2023-05-09T01:26:10.443Z,105.69
2023-05-09T01:27:10.288Z,27.39
2023-05-09T01:28:10.287Z,30.10
2023-05-09T01:29:10.264Z,35.40
2023-05-09T01:30:10.262Z,80.09
2023-05-09T01:31:10.282Z,40.59
2023-05-09T01:32:10.241Z,44.70
2023-05-09T01:33:10.254Z,47.70
2023-05-09T01:34:10.227Z,38.79
2023-05-09T01:35:10.202Z,42.40
2023-05-09T01:36:10.205Z,34.90
2023-05-09T01:37:10.194Z,38.40
2023-05-09T01:38:10.175Z,42.40
2023-05-09T01:39:10.173Z,49.59
2023-05-09T01:40:10.157Z,37.50
2023-05-09T01:41:10.139Z,43.70
2023-05-09T01:42:10.281Z,43.90
2023-05-09T01:43:10.114Z,45.09
2023-05-09T01:44:10.165Z,34.09
2023-05-09T01:45:10.103Z,36.09
2023-05-09T01:46:10.114Z,39.40
2023-05-09T01:47:10.077Z,46.09
2023-05-09T01:48:10.137Z,43.20
2023-05-09T01:49:10.069Z,46.79
2023-05-09T01:50:10.057Z,50.90
2023-05-09T01:51:10.029Z,35.90
2023-05-09T01:52:10.033Z,50.70
2023-05-09T01:53:10.011Z,47.50
2023-05-09T01:54:10.005Z,44.50
2023-05-09T01:55:09.990Z,48.00
2023-05-09T01:56:09.990Z,50.09
2023-05-09T01:57:09.970Z,51.59
2023-05-09T01:58:10.079Z,43.79
2023-05-09T01:59:09.949Z,39.20
2023-05-09T02:00:09.940Z,43.90
2023-05-09T02:01:09.950Z,48.20
2023-05-09T02:02:09.937Z,42.50
2023-05-09T02:03:09.980Z,46.20
2023-05-09T02:04:09.905Z,43.90
2023-05-09T02:05:09.893Z,41.70
2023-05-09T02:06:09.883Z,47.00
2023-05-09T02:07:09.870Z,44.00
2023-05-09T02:08:09.866Z,59.90
2023-05-09T02:09:09.850Z,54.20
2023-05-09T02:10:09.835Z,61.90
2023-05-09T02:11:09.815Z,68.50
2023-05-09T02:12:09.813Z,52.79
2023-05-09T02:13:09.928Z,56.20
2023-05-09T02:14:09.929Z,44.50
2023-05-09T02:15:09.778Z,55.09
2023-05-09T02:16:09.786Z,53.20
2023-05-09T02:17:09.769Z,53.00
2023-05-09T02:18:09.746Z,65.30
2023-05-09T02:19:09.724Z,66.30
2023-05-09T02:20:09.733Z,59.90
2023-05-09T02:21:09.744Z,79.90
2023-05-09T02:22:09.703Z,64.80
2023-05-09T02:23:09.688Z,48.20
2023-05-09T02:24:09.685Z,62.59
2023-05-09T02:25:09.663Z,53.40
2023-05-09T02:26:09.664Z,53.20
2023-05-09T02:27:09.646Z,53.29
2023-05-09T02:28:09.639Z,48.70
2023-05-09T02:29:09.622Z,62.00
2023-05-09T02:30:09.747Z,57.20
2023-05-09T02:31:09.593Z,56.90
2023-05-09T02:32:09.718Z,51.70
2023-05-09T02:33:09.633Z,62.40
2023-05-09T02:34:09.583Z,63.09
2023-05-09T02:35:09.560Z,67.00
2023-05-09T02:36:09.570Z,51.09
2023-05-09T02:37:09.546Z,55.90
2023-05-09T02:38:09.543Z,49.20
2023-05-09T02:39:09.525Z,51.79
2023-05-09T02:40:09.506Z,60.59
2023-05-09T02:41:09.494Z,41.79
2023-05-09T02:42:09.492Z,52.79
2023-05-09T02:43:09.467Z,42.29
2023-05-09T02:44:09.461Z,39.20
2023-05-09T02:45:09.447Z,46.40
2023-05-09T02:46:09.631Z,48.09
2023-05-09T02:47:09.432Z,48.20
2023-05-09T02:48:09.629Z,36.59
2023-05-09T02:49:10.212Z,42.59
2023-05-09T02:50:09.403Z,44.29
2023-05-09T02:51:09.386Z,38.90
2023-05-09T02:52:09.384Z,40.00
2023-05-09T02:53:09.364Z,48.70
2023-05-09T02:54:09.362Z,48.20
2023-05-09T02:55:09.360Z,58.29
2023-05-09T02:56:09.339Z,40.29
2023-05-09T02:57:09.320Z,56.00
2023-05-09T02:58:13.441Z,47.79
2023-05-09T02:59:09.307Z,51.90
2023-05-09T03:00:09.305Z,50.79
2023-05-09T03:01:09.310Z,50.09
2023-05-09T03:02:09.399Z,47.00
2023-05-09T03:03:09.339Z,52.09
2023-05-09T03:04:09.255Z,56.09
2023-05-09T03:05:09.233Z,59.29
2023-05-09T03:06:09.230Z,59.20
2023-05-09T03:07:09.210Z,66.09
2023-05-09T03:08:09.215Z,62.59
2023-05-09T03:09:09.202Z,70.40
2023-05-09T03:10:09.189Z,65.30
2023-05-09T03:11:09.175Z,58.90
2023-05-09T03:12:09.174Z,58.50
2023-05-09T03:13:09.167Z,51.90
2023-05-09T03:14:09.155Z,50.29
2023-05-09T03:15:09.149Z,46.40
2023-05-09T03:16:09.182Z,42.79
2023-05-09T03:17:09.105Z,48.29
2023-05-09T03:18:09.253Z,53.09
2023-05-09T03:19:09.089Z,46.00
2023-05-09T03:20:09.074Z,61.40
2023-05-09T03:21:09.068Z,55.90
2023-05-09T03:22:09.058Z,49.00
2023-05-09T03:23:09.047Z,42.59
2023-05-09T03:24:09.045Z,41.90
2023-05-09T03:25:08.968Z,39.90
2023-05-09T03:26:09.019Z,38.09
2023-05-09T03:27:08.954Z,32.40
2023-05-09T03:28:08.945Z,44.29
2023-05-09T03:29:08.929Z,59.70
2023-05-09T03:30:08.984Z,50.20
2023-05-09T03:31:08.982Z,60.70
2023-05-09T03:32:08.916Z,50.09
2023-05-09T03:33:08.916Z,51.50
2023-05-09T03:34:08.997Z,48.79
2023-05-09T03:35:08.882Z,57.70
2023-05-09T03:36:08.872Z,60.00
2023-05-09T03:37:08.853Z,45.40
2023-05-09T03:38:08.837Z,51.59
2023-05-09T03:39:08.821Z,45.50
2023-05-09T03:40:08.827Z,44.50
2023-05-09T03:41:08.803Z,56.50
2023-05-09T03:42:08.798Z,66.00
2023-05-09T03:43:08.782Z,56.40
2023-05-09T03:44:08.801Z,62.40
2023-05-09T03:45:08.776Z,61.20
2023-05-09T03:46:08.759Z,60.59
2023-05-09T03:47:08.745Z,65.90
2023-05-09T03:48:08.782Z,54.59
2023-05-09T03:49:08.728Z,57.00
2023-05-09T03:50:08.923Z,55.50
2023-05-09T03:51:08.688Z,56.70
2023-05-09T03:52:08.692Z,53.20
2023-05-09T03:53:08.672Z,60.70
2023-05-09T03:54:08.669Z,53.00
2023-05-09T03:55:08.660Z,44.09
2023-05-09T03:56:08.668Z,64.40
2023-05-09T03:57:08.627Z,71.50
2023-05-09T03:58:08.635Z,60.09
2023-05-09T03:59:08.605Z,54.00
2023-05-09T04:00:08.601Z,56.70
2023-05-09T04:01:08.581Z,59.09
2023-05-09T04:02:08.634Z,52.29
2023-05-09T04:03:08.664Z,73.09
2023-05-09T04:04:08.622Z,69.90
2023-05-09T04:05:08.541Z,63.00
2023-05-09T04:06:08.664Z,64.19
2023-05-09T04:07:08.527Z,59.29
2023-05-09T04:08:08.516Z,63.29
2023-05-09T04:09:08.518Z,61.40
2023-05-09T04:10:08.496Z,72.69
2023-05-09T04:11:08.480Z,63.09
2023-05-09T04:12:08.474Z,57.09
2023-05-09T04:13:08.508Z,65.90
2023-05-09T04:14:08.453Z,61.40
2023-05-09T04:15:08.436Z,69.69
2023-05-09T04:16:08.433Z,67.00
2023-05-09T04:17:08.446Z,74.19
2023-05-09T04:18:08.489Z,73.59
2023-05-09T04:19:08.398Z,78.30
2023-05-09T04:20:08.393Z,80.59
2023-05-09T04:21:08.380Z,67.50
2023-05-09T04:22:08.486Z,84.30
2023-05-09T04:23:08.356Z,85.40
2023-05-09T04:24:08.349Z,93.50
2023-05-09T04:25:08.327Z,100.69
2023-05-09T04:26:08.323Z,96.00
2023-05-09T04:27:08.301Z,104.50
2023-05-09T04:28:08.319Z,102.50
2023-05-09T04:29:08.287Z,84.00
2023-05-09T04:30:08.281Z,83.40
2023-05-09T04:31:08.449Z,87.69
2023-05-09T04:32:08.284Z,72.80
2023-05-09T04:33:08.281Z,68.59
2023-05-09T04:34:08.256Z,74.90
2023-05-09T04:35:08.303Z,64.09
2023-05-09T04:36:08.222Z,68.09
2023-05-09T04:37:08.218Z,60.20
2023-05-09T04:38:08.338Z,65.40
2023-05-09T04:39:08.181Z,78.19
2023-05-09T04:40:08.168Z,86.30
2023-05-09T04:41:08.174Z,88.80
2023-05-09T04:42:08.171Z,73.50
2023-05-09T04:43:08.155Z,71.09
2023-05-09T04:44:08.159Z,80.09
2023-05-09T04:45:08.129Z,70.19
2023-05-09T04:46:08.172Z,71.59
2023-05-09T04:47:08.104Z,70.80
2023-05-09T04:48:08.130Z,88.40
2023-05-09T04:49:08.081Z,82.19
2023-05-09T04:50:08.107Z,83.50
2023-05-09T04:51:08.061Z,80.59
2023-05-09T04:52:08.052Z,84.09
2023-05-09T04:53:08.025Z,86.30
2023-05-09T04:54:08.142Z,84.59
2023-05-09T04:55:08.016Z,77.30
2023-05-09T04:56:08.020Z,79.19
2023-05-09T04:57:17.128Z,70.30
2023-05-09T04:58:09.038Z,72.30
2023-05-09T04:59:07.969Z,79.59
2023-05-09T05:00:07.995Z,76.19
2023-05-09T05:01:07.944Z,75.80
2023-05-09T05:02:07.994Z,71.00
2023-05-09T05:03:07.992Z,75.50
2023-05-09T05:04:07.944Z,61.29
2023-05-09T05:05:13.344Z,82.40
2023-05-09T05:06:07.904Z,64.00
2023-05-09T05:07:07.909Z,61.29
2023-05-09T05:08:07.867Z,66.80
2023-05-09T05:09:07.870Z,61.09
2023-05-09T05:10:07.975Z,58.70
2023-05-09T05:11:07.844Z,64.19
2023-05-09T05:12:09.324Z,66.09
2023-05-09T05:13:07.851Z,78.80
2023-05-09T05:14:07.819Z,64.80
2023-05-09T05:15:07.808Z,67.69
2023-05-09T05:16:07.805Z,54.70
2023-05-09T05:17:07.782Z,75.50
2023-05-09T05:18:07.805Z,70.59
2023-05-09T05:19:07.753Z,59.40
2023-05-09T05:20:07.732Z,58.29
2023-05-09T05:21:07.746Z,57.20
2023-05-09T05:22:07.722Z,65.59
2023-05-09T05:23:07.712Z,71.19
2023-05-09T05:24:07.693Z,63.09
2023-05-09T05:25:07.703Z,57.09
2023-05-09T05:26:07.787Z,58.09
2023-05-09T05:27:07.664Z,53.50
2023-05-09T05:28:07.645Z,65.40
2023-05-09T05:29:07.684Z,64.90
2023-05-09T05:30:07.677Z,59.40
2023-05-09T05:31:07.670Z,66.40
2023-05-09T05:32:07.607Z,57.00
2023-05-09T05:33:07.722Z,49.70
2023-05-09T05:34:07.588Z,50.40
2023-05-09T05:35:07.585Z,42.20
2023-05-09T05:36:07.564Z,50.09
2023-05-09T05:37:07.558Z,43.20
2023-05-09T05:38:07.543Z,43.50
2023-05-09T05:39:07.532Z,42.09
2023-05-09T05:40:07.525Z,46.79
2023-05-09T05:41:07.527Z,42.79
2023-05-09T05:42:07.624Z,44.90
2023-05-09T05:43:07.488Z,34.79
2023-05-09T05:44:07.476Z,38.00
2023-05-09T05:45:07.478Z,37.09
2023-05-09T05:46:07.538Z,37.90
2023-05-09T05:47:07.455Z,36.09
2023-05-09T05:48:07.535Z,35.79
2023-05-09T05:49:07.431Z,37.90
2023-05-09T05:50:07.411Z,32.40
2023-05-09T05:51:07.410Z,30.70
2023-05-09T05:52:07.385Z,23.29
2023-05-09T05:53:07.383Z,26.29
2023-05-09T05:54:07.366Z,27.00
2023-05-09T05:55:07.356Z,20.89
2023-05-09T05:56:07.340Z,24.89
2023-05-09T05:57:07.343Z,22.29
2023-05-09T05:58:07.344Z,26.89
2023-05-09T05:59:07.325Z,21.79
2023-05-09T06:00:07.321Z,26.89
2023-05-09T06:01:07.302Z,23.39
2023-05-09T06:02:07.326Z,24.10
2023-05-09T06:03:07.396Z,30.10
2023-05-09T06:04:07.301Z,24.00
2023-05-09T06:05:07.249Z,20.70
2023-05-09T06:06:07.235Z,24.29
2023-05-09T06:07:07.254Z,21.70
2023-05-09T06:08:07.211Z,22.89
2023-05-09T06:09:07.202Z,19.29
2023-05-09T06:10:07.195Z,23.70
2023-05-09T06:11:07.188Z,20.20
2023-05-09T06:12:07.167Z,19.00
2023-05-09T06:13:07.273Z,20.29
2023-05-09T06:14:07.266Z,21.10
2023-05-09T06:15:07.145Z,16.39
2023-05-09T06:16:18.609Z,13.50
2023-05-09T06:17:08.186Z,14.69
2023-05-09T06:18:07.200Z,12.39
2023-05-09T06:19:07.165Z,12.80
2023-05-09T06:20:07.133Z,15.19
2023-05-09T06:21:07.152Z,12.00
2023-05-09T06:22:07.162Z,14.69
2023-05-09T06:23:07.122Z,13.19
2023-05-09T06:24:14.231Z,11.69
2023-05-09T06:25:10.283Z,11.69
2023-05-09T06:26:07.015Z,12.10
2023-05-09T06:27:07.011Z,10.50
2023-05-09T06:28:07.000Z,11.69
2023-05-09T06:29:06.988Z,12.39
2023-05-09T06:30:17.649Z,10.50
2023-05-09T06:31:08.030Z,11.69
2023-05-09T06:32:06.949Z,8.60
2023-05-09T06:33:06.986Z,14.00
2023-05-09T06:34:06.944Z,11.89
2023-05-09T06:35:06.930Z,11.89
2023-05-09T06:36:06.906Z,9.60
2023-05-09T06:37:06.909Z,13.39
2023-05-09T06:38:06.885Z,10.19
2023-05-09T06:39:06.885Z,8.30
2023-05-09T06:40:06.868Z,10.30
2023-05-09T06:41:06.859Z,8.89
2023-05-09T06:42:06.853Z,10.00
2023-05-09T06:43:06.849Z,8.89
2023-05-09T06:44:06.815Z,8.89
2023-05-09T06:45:06.853Z,8.10
2023-05-09T06:46:06.935Z,7.80
2023-05-09T06:47:06.798Z,9.89
2023-05-09T06:48:06.828Z,8.60
2023-05-09T06:49:06.789Z,8.69
2023-05-09T06:50:06.770Z,8.10
2023-05-09T06:51:06.759Z,8.69
2023-05-09T06:52:06.735Z,6.90
2023-05-09T06:53:06.734Z,7.50
2023-05-09T06:54:06.717Z,7.59
2023-05-09T06:55:06.717Z,9.50
2023-05-09T06:56:06.696Z,7.19
2023-05-09T06:57:06.684Z,7.80
2023-05-09T06:58:06.691Z,7.40
2023-05-09T06:59:06.671Z,7.69
2023-05-09T07:00:06.657Z,6.59
2023-05-09T07:01:06.653Z,6.09
2023-05-09T07:02:06.819Z,6.09
2023-05-09T07:03:06.655Z,7.59
2023-05-09T07:04:06.611Z,7.00
2023-05-09T07:05:06.632Z,7.69
2023-05-09T07:06:06.591Z,8.30
2023-05-09T07:07:06.587Z,9.30
2023-05-09T07:08:06.579Z,7.00
2023-05-09T07:09:06.572Z,6.90
2023-05-09T07:10:11.297Z,8.89
2023-05-09T07:11:06.562Z,8.00
2023-05-09T07:12:06.518Z,7.90
2023-05-09T07:13:06.542Z,7.59
2023-05-09T07:14:06.503Z,6.19
2023-05-09T07:15:06.499Z,7.69
2023-05-09T07:16:06.644Z,7.80
2023-05-09T07:17:22.155Z,6.00
2023-05-09T07:18:07.814Z,5.69
2023-05-09T07:19:06.454Z,7.50
2023-05-09T07:20:06.433Z,7.59
2023-05-09T07:21:06.434Z,6.90
2023-05-09T07:22:06.457Z,6.80
2023-05-09T07:23:06.411Z,6.69
2023-05-09T07:24:06.412Z,6.19
2023-05-09T07:25:06.392Z,5.30
2023-05-09T07:26:06.378Z,9.19
2023-05-09T07:27:06.409Z,5.59
2023-05-09T07:28:06.348Z,5.40
2023-05-09T07:29:06.349Z,7.59
2023-05-09T07:30:06.339Z,6.40
2023-05-09T07:31:06.329Z,5.80
2023-05-09T07:32:06.415Z,6.19
2023-05-09T07:33:06.412Z,12.10
2023-05-09T07:34:06.412Z,4.90
2023-05-09T07:35:06.296Z,6.69
2023-05-09T07:36:06.276Z,6.40
2023-05-09T07:37:06.353Z,6.00
2023-05-09T07:38:06.350Z,6.90
2023-05-09T07:39:06.274Z,7.19
2023-05-09T07:40:06.265Z,5.69
2023-05-09T07:41:06.271Z,6.80
2023-05-09T07:42:06.295Z,5.50
2023-05-09T07:43:06.206Z,6.40
2023-05-09T07:44:06.190Z,6.59
2023-05-09T07:45:06.226Z,5.00
2023-05-09T07:46:06.347Z,5.80
2023-05-09T07:47:06.149Z,6.19
2023-05-09T07:48:06.221Z,5.40
2023-05-09T07:49:06.131Z,6.00
2023-05-09T07:50:06.291Z,5.40
2023-05-09T07:51:06.121Z,4.40
2023-05-09T07:52:06.095Z,4.80
2023-05-09T07:53:06.094Z,4.19
2023-05-09T07:54:06.065Z,5.00
2023-05-09T07:55:06.069Z,6.00
2023-05-09T07:56:06.048Z,4.19
2023-05-09T07:57:06.047Z,4.50
2023-05-09T07:58:06.035Z,7.40
2023-05-09T07:59:06.023Z,5.59
2023-05-09T08:00:06.007Z,6.30
2023-05-09T08:01:06.001Z,4.50
2023-05-09T08:02:06.041Z,6.00
2023-05-09T08:03:06.201Z,5.90
2023-05-09T08:04:06.027Z,5.50
2023-05-09T08:05:05.957Z,5.90
2023-05-09T08:06:06.061Z,5.40
2023-05-09T08:07:05.939Z,6.69
2023-05-09T08:08:05.917Z,5.50
2023-05-09T08:09:05.916Z,5.19
2023-05-09T08:10:05.894Z,4.80
2023-05-09T08:11:05.908Z,6.30
2023-05-09T08:12:05.878Z,6.40
2023-05-09T08:13:05.915Z,6.09
2023-05-09T08:14:05.854Z,5.90
2023-05-09T08:15:05.864Z,5.19
2023-05-09T08:16:05.903Z,7.50
2023-05-09T08:17:05.842Z,4.80
2023-05-09T08:18:05.868Z,4.30
2023-05-09T08:19:05.810Z,5.09
2023-05-09T08:20:05.789Z,3.59
2023-05-09T08:21:05.788Z,5.50
2023-05-09T08:22:05.898Z,4.50
2023-05-09T08:23:05.772Z,5.50
2023-05-09T08:24:05.755Z,4.69
2023-05-09T08:25:05.748Z,3.50
2023-05-09T08:26:05.732Z,5.19
2023-05-09T08:27:05.724Z,6.40
2023-05-09T08:28:05.712Z,4.59
2023-05-09T08:29:05.705Z,4.80
2023-05-09T08:30:05.683Z,5.09
2023-05-09T08:31:05.708Z,4.30
2023-05-09T08:32:05.665Z,3.00
2023-05-09T08:33:05.725Z,3.90
2023-05-09T08:34:05.640Z,3.90
2023-05-09T08:35:05.641Z,4.30
2023-05-09T08:36:05.629Z,2.59
2023-05-09T08:37:05.613Z,4.90
2023-05-09T08:38:05.738Z,2.90
2023-05-09T08:39:05.601Z,3.50
2023-05-09T08:40:05.578Z,3.29
2023-05-09T08:41:05.580Z,3.20
2023-05-09T08:42:05.555Z,2.50
2023-05-09T08:43:05.556Z,3.59
2023-05-09T08:44:05.544Z,2.29
2023-05-09T08:45:05.534Z,3.40
2023-05-09T08:46:05.670Z,2.20
2023-05-09T08:47:05.583Z,3.59
2023-05-09T08:48:05.587Z,2.70
2023-05-09T08:49:05.498Z,3.50
2023-05-09T08:50:05.471Z,2.40
2023-05-09T08:51:05.475Z,2.00
2023-05-09T08:52:05.454Z,2.50
2023-05-09T08:53:05.455Z,2.29
2023-05-09T08:54:05.571Z,3.59
2023-05-09T08:55:05.438Z,2.50
2023-05-09T08:56:05.415Z,3.00
2023-05-09T08:57:05.405Z,2.20
2023-05-09T08:58:05.392Z,3.29
2023-05-09T08:59:05.382Z,2.00
2023-05-09T09:00:05.370Z,1.50
2023-05-09T09:01:05.366Z,3.00
2023-05-09T09:02:05.427Z,2.59
2023-05-09T09:03:05.386Z,1.50
2023-05-09T09:04:05.327Z,2.00
2023-05-09T09:05:05.872Z,1.70
2023-05-09T09:06:05.302Z,2.70
2023-05-09T09:07:05.304Z,1.29
2023-05-09T09:08:05.282Z,2.20
2023-05-09T09:09:05.295Z,2.00
2023-05-09T09:10:05.392Z,2.00
2023-05-09T09:11:05.262Z,2.20
2023-05-09T09:12:05.243Z,2.09
2023-05-09T09:13:05.305Z,1.29
2023-05-09T09:14:05.228Z,2.09
2023-05-09T09:15:05.226Z,2.40
2023-05-09T09:16:05.231Z,2.59
2023-05-09T09:17:05.198Z,2.29
2023-05-09T09:18:07.290Z,2.59
2023-05-09T09:19:05.168Z,3.00
2023-05-09T09:20:05.172Z,3.09
2023-05-09T09:21:05.152Z,2.29
2023-05-09T09:22:05.141Z,2.20
2023-05-09T09:23:05.136Z,2.09
2023-05-09T09:24:05.116Z,1.20
2023-05-09T09:25:05.126Z,1.50
2023-05-09T09:26:05.230Z,2.40
2023-05-09T09:27:05.098Z,2.70
2023-05-09T09:28:05.086Z,2.59
2023-05-09T09:29:05.069Z,2.00
2023-05-09T09:30:05.054Z,2.00
2023-05-09T09:31:05.054Z,1.29
2023-05-09T09:32:05.086Z,1.29
2023-05-09T09:33:05.126Z,2.40
2023-05-09T09:34:05.005Z,1.70
2023-05-09T09:35:05.016Z,2.59
2023-05-09T09:36:05.024Z,1.50
2023-05-09T09:37:04.987Z,2.59
2023-05-09T09:38:04.973Z,2.79
2023-05-09T09:39:04.980Z,3.50
2023-05-09T09:40:04.996Z,1.50
2023-05-09T09:41:04.944Z,2.00
2023-05-09T09:42:05.052Z,1.70
2023-05-09T09:43:04.926Z,1.60
2023-05-09T09:44:04.911Z,4.09
2023-05-09T09:45:04.932Z,1.60
2023-05-09T09:46:04.929Z,1.50
2023-05-09T09:47:04.883Z,4.59
2023-05-09T09:48:04.938Z,2.90
2023-05-09T09:49:04.865Z,2.70
2023-05-09T09:50:04.853Z,2.29
2023-05-09T09:51:04.852Z,2.70
2023-05-09T09:52:04.824Z,2.70
2023-05-09T09:53:04.821Z,2.29
2023-05-09T09:54:04.820Z,2.90
2023-05-09T09:55:04.812Z,2.29
2023-05-09T09:56:04.782Z,1.79
2023-05-09T09:57:04.781Z,2.20
2023-05-09T09:58:04.877Z,2.50
2023-05-09T09:59:04.769Z,3.09
2023-05-09T10:00:04.743Z,1.50
2023-05-09T10:01:04.790Z,3.20
2023-05-09T10:02:07.411Z,1.39
2023-05-09T10:03:04.796Z,1.60
2023-05-09T10:04:04.738Z,2.50
2023-05-09T10:05:04.697Z,2.00
2023-05-09T10:06:04.684Z,3.29
2023-05-09T10:07:04.676Z,3.20
2023-05-09T10:08:04.669Z,1.90
2023-05-09T10:09:04.673Z,2.79
2023-05-09T10:10:04.724Z,3.09
2023-05-09T10:11:04.626Z,3.29
2023-05-09T10:12:04.631Z,2.70
2023-05-09T10:13:04.623Z,2.40
2023-05-09T10:14:04.724Z,3.79
2023-05-09T10:15:04.596Z,2.20
2023-05-09T10:16:04.648Z,1.79
2023-05-09T10:17:04.966Z,3.29
2023-05-09T10:18:04.689Z,3.70
2023-05-09T10:19:04.575Z,3.50
2023-05-09T10:20:04.532Z,3.59
2023-05-09T10:21:04.526Z,3.79
2023-05-09T10:22:04.501Z,11.39
2023-05-09T10:23:04.506Z,9.19
2023-05-09T10:24:04.479Z,4.09
2023-05-09T10:25:04.503Z,2.70
2023-05-09T10:26:04.462Z,3.20
2023-05-09T10:27:04.461Z,4.69
2023-05-09T10:28:04.442Z,5.59
2023-05-09T10:29:04.437Z,4.00
2023-05-09T10:30:04.547Z,4.80
2023-05-09T10:31:06.419Z,4.40
2023-05-09T10:32:04.393Z,3.70
2023-05-09T10:33:04.536Z,3.79
2023-05-09T10:34:04.376Z,3.09
2023-05-09T10:35:04.369Z,5.59
2023-05-09T10:36:04.363Z,3.90
2023-05-09T10:37:04.355Z,3.00
2023-05-09T10:38:04.341Z,5.59
2023-05-09T10:39:04.343Z,4.69
2023-05-09T10:40:04.329Z,4.90
2023-05-09T10:41:04.306Z,5.30
2023-05-09T10:42:04.294Z,4.90
2023-05-09T10:43:04.292Z,4.59
2023-05-09T10:44:04.272Z,4.80
2023-05-09T10:45:04.286Z,3.40
2023-05-09T10:46:04.412Z,6.40
2023-05-09T10:47:04.370Z,5.50
2023-05-09T10:48:04.265Z,5.40
2023-05-09T10:49:04.224Z,5.90
2023-05-09T10:50:04.207Z,4.80
2023-05-09T10:51:04.216Z,7.30
2023-05-09T10:52:04.181Z,4.59
2023-05-09T10:53:04.225Z,6.09
2023-05-09T10:54:04.165Z,4.30
2023-05-09T10:55:04.161Z,5.30
2023-05-09T10:56:04.142Z,4.59
2023-05-09T10:57:04.140Z,3.59
2023-05-09T10:58:04.116Z,5.00
2023-05-09T10:59:04.121Z,3.90
2023-05-09T11:00:04.099Z,3.70
2023-05-09T11:01:04.100Z,4.90
2023-05-09T11:02:04.136Z,4.30
2023-05-09T11:03:04.181Z,8.89
2023-05-09T11:04:04.075Z,4.40
2023-05-09T11:05:04.077Z,5.50
2023-05-09T11:06:04.028Z,7.30
2023-05-09T11:07:04.032Z,5.30
2023-05-09T11:08:04.024Z,6.00
2023-05-09T11:09:04.014Z,6.19
2023-05-09T11:10:03.994Z,4.30
2023-05-09T11:11:03.992Z,3.09
2023-05-09T11:12:03.976Z,5.19
2023-05-09T11:13:03.996Z,4.40
2023-05-09T11:14:03.962Z,4.30
2023-05-09T11:15:03.952Z,3.79
2023-05-09T11:16:03.998Z,4.69
2023-05-09T11:17:03.927Z,3.90
2023-05-09T11:18:04.172Z,5.30
2023-05-09T11:19:03.904Z,3.20
2023-05-09T11:20:03.891Z,2.90
2023-05-09T11:21:03.883Z,3.90
2023-05-09T11:22:03.867Z,6.30
2023-05-09T11:23:03.870Z,4.40
2023-05-09T11:24:03.851Z,4.09
2023-05-09T11:25:03.853Z,5.59
2023-05-09T11:26:03.823Z,6.80
2023-05-09T11:27:03.827Z,6.00
2023-05-09T11:28:03.805Z,3.50
2023-05-09T11:29:03.805Z,3.20
2023-05-09T11:30:03.787Z,4.19
2023-05-09T11:31:03.787Z,2.40
2023-05-09T11:32:03.796Z,5.40
2023-05-09T11:33:03.794Z,3.40
2023-05-09T11:34:03.861Z,3.70
2023-05-09T11:35:03.733Z,2.79
2023-05-09T11:36:03.720Z,3.70
2023-05-09T11:37:03.716Z,2.50
2023-05-09T11:38:03.697Z,2.70
2023-05-09T11:39:03.702Z,3.59
2023-05-09T11:40:03.675Z,3.09
2023-05-09T11:41:03.674Z,3.50
2023-05-09T11:42:03.654Z,4.59
2023-05-09T11:43:03.681Z,3.59
2023-05-09T11:44:03.632Z,4.00
2023-05-09T11:45:03.629Z,3.90
2023-05-09T11:46:03.657Z,3.90
2023-05-09T11:47:03.604Z,3.70
2023-05-09T11:48:03.665Z,7.50
2023-05-09T11:49:03.585Z,5.90
2023-05-09T11:50:03.693Z,3.90
2023-05-09T11:51:03.565Z,6.09
2023-05-09T11:52:03.544Z,3.70
2023-05-09T11:53:03.547Z,4.80
2023-05-09T11:54:03.524Z,4.90
2023-05-09T11:55:03.520Z,4.00
2023-05-09T11:56:03.508Z,4.69
2023-05-09T11:57:03.502Z,5.80
2023-05-09T11:58:03.487Z,3.00
2023-05-09T11:59:03.493Z,4.80
2023-05-09T12:00:03.466Z,3.90
2023-05-09T12:01:03.518Z,4.30
2023-05-09T12:02:03.503Z,4.40
2023-05-09T12:03:03.570Z,5.30
2023-05-09T12:04:03.493Z,7.40
2023-05-09T12:05:03.416Z,4.80
2023-05-09T12:06:03.536Z,5.50
2023-05-09T12:07:03.390Z,4.69
2023-05-09T12:08:03.378Z,5.09
2023-05-09T12:09:03.367Z,3.59
2023-05-09T12:10:03.364Z,4.40
2023-05-09T12:11:03.348Z,5.09
2023-05-09T12:12:03.327Z,3.59
2023-05-09T12:13:03.372Z,4.19
2023-05-09T12:14:03.308Z,5.19
2023-05-09T12:15:03.319Z,4.40
2023-05-09T12:16:03.323Z,4.90
2023-05-09T12:17:03.289Z,6.00
2023-05-09T12:18:03.355Z,4.69
2023-05-09T12:19:03.259Z,7.30
2023-05-09T12:20:03.244Z,6.30
2023-05-09T12:21:03.234Z,5.19
2023-05-09T12:22:03.317Z,7.00
2023-05-09T12:23:03.219Z,5.59
2023-05-09T12:24:03.193Z,8.00
2023-05-09T12:25:03.190Z,4.90
2023-05-09T12:26:03.180Z,8.19
2023-05-09T12:27:03.172Z,7.90
2023-05-09T12:28:03.154Z,4.69
2023-05-09T12:29:03.165Z,8.89
2023-05-09T12:30:03.132Z,7.00
2023-05-09T12:31:03.148Z,5.80
2023-05-09T12:32:03.113Z,6.80
2023-05-09T12:33:03.226Z,5.80
2023-05-09T12:34:03.088Z,8.00
2023-05-09T12:35:03.079Z,7.69
2023-05-09T12:36:03.075Z,6.30
2023-05-09T12:37:03.061Z,6.00
2023-05-09T12:38:03.164Z,4.30
2023-05-09T12:39:03.064Z,6.00
2023-05-09T12:40:03.025Z,5.50
2023-05-09T12:41:03.975Z,5.59
2023-05-09T12:42:02.998Z,4.30
2023-05-09T12:43:03.055Z,6.19
2023-05-09T12:44:02.986Z,6.90
2023-05-09T12:45:02.974Z,4.90
2023-05-09T12:46:02.958Z,4.00
2023-05-09T12:47:02.993Z,4.50
2023-05-09T12:48:02.987Z,5.59
2023-05-09T12:49:02.934Z,4.69
2023-05-09T12:50:02.927Z,4.40
2023-05-09T12:51:02.916Z,7.50
2023-05-09T12:52:04.837Z,5.19
2023-05-09T12:53:03.784Z,5.80
2023-05-09T12:54:02.995Z,6.69
2023-05-09T12:55:02.868Z,7.40
2023-05-09T12:56:02.870Z,11.00
2023-05-09T12:57:02.843Z,6.19
2023-05-09T12:58:02.832Z,6.59
2023-05-09T12:59:02.824Z,9.60
2023-05-09T13:00:02.819Z,6.19
2023-05-09T13:01:02.861Z,5.50
2023-05-09T13:02:02.809Z,6.00
2023-05-09T13:03:02.867Z,5.90
2023-05-09T13:04:02.762Z,5.50